NFTF/TBU METAR and TAF weather

Enter ICAO airport designator
Station Type Date Time Source
NFTF METAR 2019/10/14 05:00 UTC NOAA

NFTF 140500Z 08005KT 9999 FEW017 BKN300 25/23 Q1013


Station Type Date Time Source
NFTF Decoded METAR 2019/10/14 05:00 UTC NOAA

Fua'Amotu, Tonga (NFTF) 21-14S 175-09W 41M
Oct 14, 2019 - 01:00 AM EDT / 2019.10.14 0500 UTC
Wind: from the E (080 degrees) at 6 MPH (5 KT):0
Visibility: greater than 7 mile(s):0
Sky conditions: mostly cloudy
Temperature: 77 F (25 C)
Dew Point: 73 F (23 C)
Relative Humidity: 88%
Pressure (altimeter): 29.91 in. Hg (1013 hPa)
ob: NFTF 140500Z 08005KT 9999 FEW017 BKN300 25/23 Q1013
cycle: 5

Station Type Date Time Source
NFTF TAF 2019/10/14 06:27 UTC NOAA

TAF NFTF 140524Z 1406/1506 07008KT 9999 SCT016 BKN100

Example: see airport list